createdAt,value
2022-12-23T00:01:01.941Z,94920.63
2022-12-23T00:06:12.142Z,94915.59
2022-12-23T00:11:17.317Z,94908.97
2022-12-23T00:16:18.869Z,94902.75
2022-12-23T00:21:21.465Z,94887.94
2022-12-23T00:26:25.530Z,94881.31
2022-12-23T00:31:27.135Z,94871.22
2022-12-23T00:36:30.220Z,94871.59
2022-12-23T00:41:50.603Z,94866.56
2022-12-23T00:46:52.114Z,94872.78
2022-12-23T00:51:53.666Z,94865.00
2022-12-23T00:56:55.276Z,94863.44
2022-12-23T01:02:15.750Z,94861.53
2022-12-23T01:07:17.507Z,94860.38
2022-12-23T01:12:19.138Z,94853.78
2022-12-23T01:17:20.984Z,94850.25
2022-12-23T01:22:22.630Z,94857.22
2022-12-23T01:27:24.200Z,94847.50
2022-12-23T01:32:25.824Z,94846.69
2022-12-23T01:37:27.387Z,94843.97
2022-12-23T01:42:44.116Z,94840.84
2022-12-23T01:48:11.564Z,94845.84
2022-12-23T01:53:25.644Z,94847.81
2022-12-23T01:58:35.458Z,94844.25
2022-12-23T02:03:43.205Z,94841.91
2022-12-23T02:09:03.890Z,94849.28
2022-12-23T02:14:49.204Z,94846.56
2022-12-23T02:20:04.019Z,94846.19
2022-12-23T02:25:27.273Z,94839.53
2022-12-23T02:30:42.822Z,94840.69
2022-12-23T02:36:20.943Z,94843.41
2022-12-23T02:41:42.562Z,94845.72
2022-12-23T02:46:52.465Z,94842.22
2022-12-23T02:51:57.212Z,94842.19
2022-12-23T02:57:03.542Z,94839.06
2022-12-23T03:02:05.342Z,94828.94
2022-12-23T03:07:18.493Z,94836.28
2022-12-23T03:12:35.538Z,94835.53
2022-12-23T03:17:57.496Z,94830.47
2022-12-23T03:23:12.237Z,94826.22
2022-12-23T03:28:19.277Z,94827.03
2022-12-23T03:33:26.887Z,94824.25
2022-12-23T03:38:32.665Z,94822.28
2022-12-23T03:43:44.842Z,94817.97
2022-12-23T03:48:58.723Z,94819.91
2022-12-23T03:54:06.882Z,94821.41
2022-12-23T03:59:18.178Z,94822.22
2022-12-23T04:04:34.595Z,94828.00
2022-12-23T04:09:36.970Z,94832.66
2022-12-23T04:14:45.816Z,94830.28
2022-12-23T04:19:47.631Z,94842.34
2022-12-23T04:24:49.141Z,94844.66
2022-12-23T04:29:50.636Z,94839.97
2022-12-23T04:34:52.408Z,94844.63
2022-12-23T04:39:53.888Z,94850.81
2022-12-23T04:44:55.487Z,94849.22
2022-12-23T04:49:57.030Z,94845.75
2022-12-23T04:54:58.556Z,94849.63
2022-12-23T05:00:00.124Z,94853.91
2022-12-23T05:05:01.638Z,94853.91
2022-12-23T05:10:03.512Z,94850.06
2022-12-23T05:15:05.500Z,94856.66
2022-12-23T05:20:09.588Z,94859.38
2022-12-23T05:25:11.087Z,94875.72
2022-12-23T05:30:12.781Z,94869.84
2022-12-23T05:35:14.459Z,94872.63
2022-12-23T05:40:21.536Z,94887.78
2022-12-23T05:45:25.073Z,94885.78
2022-12-23T05:50:26.678Z,94885.00
2022-12-23T05:55:28.621Z,94887.34
2022-12-23T06:00:30.256Z,94891.59
2022-12-23T06:05:31.838Z,94902.13
2022-12-23T06:10:33.401Z,94893.50
2022-12-23T06:15:34.989Z,94900.09
2022-12-23T06:20:36.532Z,94903.63
2022-12-23T06:25:38.030Z,94916.03
2022-12-23T06:30:39.753Z,94918.34
2022-12-23T06:35:41.306Z,94927.28
2022-12-23T06:40:42.852Z,94935.44
2022-12-23T06:45:48.096Z,94941.63
2022-12-23T06:50:49.627Z,94940.75
2022-12-23T06:55:59.624Z,94949.31
2022-12-23T07:01:01.230Z,94957.81
2022-12-23T07:06:03.158Z,94957.75
2022-12-23T07:11:05.259Z,94960.03
2022-12-23T07:16:08.762Z,94979.91
2022-12-23T07:21:21.227Z,94979.53
2022-12-23T07:26:26.371Z,94984.94
2022-12-23T07:31:28.433Z,95008.28
2022-12-23T07:36:30.077Z,95022.66
2022-12-23T07:41:32.159Z,95024.97
2022-12-23T07:46:40.806Z,95037.41
2022-12-23T07:51:42.391Z,95033.44
2022-12-23T07:56:43.952Z,95036.13
2022-12-23T08:01:45.613Z,95034.91
2022-12-23T08:06:47.332Z,95030.16
2022-12-23T08:11:48.898Z,95036.78
2022-12-23T08:16:50.461Z,95044.56
2022-12-23T08:21:52.206Z,95041.44
2022-12-23T08:26:53.707Z,95037.91
2022-12-23T08:31:56.015Z,95026.97
2022-12-23T08:36:57.562Z,95041.75
2022-12-23T08:41:59.164Z,95042.09
2022-12-23T08:47:00.715Z,95045.53
2022-12-23T08:52:03.754Z,95040.44
2022-12-23T08:57:05.274Z,95058.72
2022-12-23T09:02:07.041Z,95071.69
2022-12-23T09:07:09.040Z,95084.53
2022-12-23T09:12:11.539Z,95092.03
2022-12-23T09:17:13.923Z,95086.19
2022-12-23T09:22:15.656Z,95084.22
2022-12-23T09:27:17.376Z,95094.38
2022-12-23T09:32:19.719Z,95086.19
2022-12-23T09:37:21.354Z,95077.22
2022-12-23T09:42:38.452Z,95084.22
2022-12-23T09:47:41.531Z,95090.44
2022-12-23T09:52:55.022Z,95088.09
2022-12-23T09:58:04.571Z,95093.94
2022-12-23T10:03:33.445Z,95089.22
2022-12-23T10:08:39.961Z,95086.09
2022-12-23T10:13:46.987Z,95079.81
2022-12-23T10:18:51.676Z,95080.13
2022-12-23T10:23:54.863Z,95066.47
2022-12-23T10:29:14.032Z,95064.50
2022-12-23T10:34:29.058Z,95065.66
2022-12-23T10:40:11.126Z,95060.94
2022-12-23T10:45:43.243Z,95065.53
2022-12-23T10:51:13.071Z,95044.03
2022-12-23T10:56:15.174Z,95059.63
2022-12-23T11:01:26.741Z,95041.19
2022-12-23T11:06:36.565Z,95033.38
2022-12-23T11:11:56.789Z,95037.28
2022-12-23T11:16:58.336Z,95040.75
2022-12-23T11:22:01.415Z,95051.22
2022-12-23T11:27:06.200Z,95035.19
2022-12-23T11:32:21.942Z,95044.16
2022-12-23T11:37:43.710Z,95047.31
2022-12-23T11:42:47.941Z,95036.38
2022-12-23T11:47:53.344Z,95026.22
2022-12-23T11:53:01.908Z,95023.84
2022-12-23T11:58:03.777Z,95030.44
2022-12-23T12:03:14.122Z,95011.25
2022-12-23T12:08:20.748Z,95006.16
2022-12-23T12:13:32.514Z,95015.88
2022-12-23T12:18:34.891Z,95015.41
2022-12-23T12:23:49.116Z,95011.91
2022-12-23T12:28:56.978Z,95008.78
2022-12-23T12:34:27.817Z,94993.91
2022-12-23T12:39:38.182Z,94985.69
2022-12-23T12:44:52.861Z,94979.81
2022-12-23T12:50:02.289Z,94970.44
2022-12-23T12:55:22.649Z,94977.47
2022-12-23T13:00:25.440Z,94974.28
2022-12-23T13:05:54.373Z,94953.53
2022-12-23T13:11:10.135Z,94961.72
2022-12-23T13:16:24.149Z,94939.75
2022-12-23T13:21:37.319Z,94941.66
2022-12-23T13:26:46.749Z,94951.75
2022-12-23T13:32:01.701Z,94932.19
2022-12-23T13:37:36.518Z,94915.78
2022-12-23T13:42:44.577Z,94922.78
2022-12-23T13:48:14.487Z,94914.19
2022-12-23T13:53:28.962Z,94899.75
2022-12-23T13:58:32.208Z,94891.09
2022-12-23T14:03:35.815Z,94887.97
2022-12-23T14:08:42.757Z,94886.34
2022-12-23T14:13:51.486Z,94889.09
2022-12-23T14:19:03.099Z,94869.53
2022-12-23T14:24:23.194Z,94868.31
2022-12-23T14:29:42.610Z,94842.94
2022-12-23T14:35:24.379Z,94844.91
2022-12-23T14:40:38.216Z,94851.91
2022-12-23T14:45:43.415Z,94844.91
2022-12-23T14:50:57.283Z,94840.97
2022-12-23T14:56:07.848Z,94827.28
2022-12-23T15:01:30.010Z,94829.63
2022-12-23T15:06:37.323Z,94820.63
2022-12-23T15:11:40.424Z,94827.63
2022-12-23T15:16:45.165Z,94813.56
2022-12-23T15:21:51.606Z,94812.34
2022-12-23T15:32:23.828Z,94809.69
2022-12-23T15:37:29.004Z,94805.88
2022-12-23T15:42:35.582Z,94796.56
2022-12-23T15:47:42.950Z,94804.84
2022-12-23T15:52:46.752Z,94792.00
2022-12-23T15:57:50.940Z,94780.28
2022-12-23T16:03:04.065Z,94769.78
2022-12-23T16:08:15.909Z,94772.56
2022-12-23T16:13:19.514Z,94771.09
2022-12-23T16:18:28.491Z,94757.56
2022-12-23T16:23:32.752Z,94751.41
2022-12-23T16:28:40.271Z,94739.75
2022-12-23T16:33:49.986Z,94732.75
2022-12-23T16:38:56.887Z,94722.16
2022-12-23T16:43:59.311Z,94738.50
2022-12-23T16:49:04.999Z,94730.78
2022-12-23T16:54:06.977Z,94726.03
2022-12-23T16:59:09.518Z,94721.22
2022-12-23T17:04:11.186Z,94711.41
2022-12-23T17:09:13.587Z,94704.34
2022-12-23T17:14:25.432Z,94714.16
2022-12-23T17:19:29.431Z,94711.41
2022-12-23T17:24:31.422Z,94700.91
2022-12-23T17:29:32.935Z,94711.28
2022-12-23T17:34:34.447Z,94718.22
2022-12-23T17:39:35.937Z,94715.00
2022-12-23T17:44:37.464Z,94707.19
2022-12-23T17:49:38.989Z,94714.63
2022-12-23T17:54:40.923Z,94711.84
2022-12-23T17:59:43.398Z,94710.91
2022-12-23T18:04:47.786Z,94699.22
2022-12-23T18:09:50.808Z,94697.22
2022-12-23T18:14:52.522Z,94692.38
2022-12-23T18:19:54.758Z,94716.59
2022-12-23T18:24:59.452Z,94691.97
2022-12-23T18:30:01.360Z,94691.81
2022-12-23T18:35:03.656Z,94703.31
2022-12-23T18:40:06.924Z,94709.59
2022-12-23T18:45:28.169Z,94729.41
2022-12-23T18:50:30.929Z,94703.44
2022-12-23T18:55:32.614Z,94718.81
2022-12-23T19:00:34.132Z,94692.84
2022-12-23T19:05:35.716Z,94713.56
2022-12-23T19:10:37.265Z,94715.84
2022-12-23T19:15:40.959Z,94702.53
2022-12-23T19:20:46.715Z,94715.34
2022-12-23T19:25:54.857Z,94737.03
2022-12-23T19:30:57.182Z,94717.09
2022-12-23T19:35:58.964Z,94730.28
2022-12-23T19:41:00.529Z,94755.38
2022-12-23T19:46:05.170Z,94740.97
2022-12-23T19:51:15.838Z,94757.75
2022-12-23T19:56:21.983Z,94761.09
2022-12-23T20:01:25.686Z,94739.91
2022-12-23T20:06:30.489Z,94749.22
2022-12-23T20:11:41.142Z,94766.34
2022-12-23T20:16:43.385Z,94759.59
2022-12-23T20:21:47.832Z,94763.84
2022-12-23T20:26:49.389Z,94799.81
2022-12-23T20:31:50.974Z,94781.34
2022-12-23T20:36:52.539Z,94802.38
2022-12-23T20:41:54.047Z,94794.88
2022-12-23T20:46:55.590Z,94810.44
2022-12-23T20:51:57.187Z,94810.97
2022-12-23T20:56:58.944Z,94813.69
2022-12-23T21:02:01.804Z,94815.16
2022-12-23T21:07:03.659Z,94827.31
2022-12-23T21:12:05.750Z,94811.97
2022-12-23T21:17:07.288Z,94822.16
2022-12-23T21:22:08.838Z,94844.84
2022-12-23T21:27:10.388Z,94835.88
2022-12-23T21:32:11.877Z,94855.41
2022-12-23T21:37:13.466Z,94877.81
2022-12-23T21:42:14.985Z,94871.22
2022-12-23T21:47:16.596Z,94901.00
2022-12-23T21:52:18.228Z,94908.84
2022-12-23T21:57:19.855Z,94938.97
2022-12-23T22:02:21.566Z,94910.06
2022-12-23T22:07:23.466Z,94899.16
2022-12-23T22:12:25.531Z,94909.69
2022-12-23T22:17:27.073Z,94913.69
2022-12-23T22:22:28.663Z,94916.53
2022-12-23T22:27:30.190Z,94923.63
2022-12-23T22:32:31.776Z,94924.16
2022-12-23T22:37:33.303Z,94946.50
2022-12-23T22:42:34.967Z,94952.38
2022-12-23T22:47:36.558Z,94952.94
2022-12-23T22:52:38.539Z,94963.91
2022-12-23T22:57:40.696Z,94981.84
2022-12-23T23:02:42.176Z,94984.19
2022-12-23T23:07:43.775Z,94995.91
2022-12-23T23:12:45.443Z,94989.66
2022-12-23T23:17:47.047Z,95009.63
2022-12-23T23:22:48.575Z,95003.09
2022-12-23T23:27:50.155Z,95001.13
2022-12-23T23:32:51.737Z,95010.94
2022-12-23T23:37:53.388Z,95019.97
2022-12-23T23:42:54.965Z,95030.56
2022-12-23T23:47:56.616Z,95052.66
2022-12-23T23:52:58.234Z,95060.09
2022-12-23T23:57:59.795Z,95061.63
